sensor_id;sensor_type;location;lat;lon;timestamp;P1;durP1;ratioP1;P2;durP2;ratioP2
54307;SDS011;40208;39.778;2.710;2022-08-19T00:00:13;6.57;;;2.60;;
54307;SDS011;40208;39.778;2.710;2022-08-19T00:02:58;7.05;;;2.55;;
54307;SDS011;40208;39.778;2.710;2022-08-19T00:05:43;10.60;;;2.53;;
54307;SDS011;40208;39.778;2.710;2022-08-19T00:08:28;7.05;;;1.90;;
54307;SDS011;40208;39.778;2.710;2022-08-19T00:11:12;7.68;;;2.70;;
54307;SDS011;40208;39.778;2.710;2022-08-19T00:13:57;16.73;;;2.42;;
54307;SDS011;40208;39.778;2.710;2022-08-19T00:16:44;5.07;;;2.40;;
54307;SDS011;40208;39.778;2.710;2022-08-19T00:19:30;7.72;;;2.65;;
54307;SDS011;40208;39.778;2.710;2022-08-19T00:22:15;4.07;;;2.33;;
54307;SDS011;40208;39.778;2.710;2022-08-19T00:25:01;6.22;;;2.22;;
54307;SDS011;40208;39.778;2.710;2022-08-19T00:27:47;6.03;;;2.15;;
54307;SDS011;40208;39.778;2.710;2022-08-19T00:30:32;6.47;;;2.53;;
54307;SDS011;40208;39.778;2.710;2022-08-19T00:33:16;8.50;;;2.88;;
54307;SDS011;40208;39.778;2.710;2022-08-19T00:36:02;7.00;;;2.05;;
54307;SDS011;40208;39.778;2.710;2022-08-19T00:38:49;6.78;;;2.38;;
54307;SDS011;40208;39.778;2.710;2022-08-19T00:41:35;9.98;;;2.08;;
54307;SDS011;40208;39.778;2.710;2022-08-19T00:44:24;7.97;;;1.48;;
54307;SDS011;40208;39.778;2.710;2022-08-19T00:47:11;3.10;;;1.33;;
54307;SDS011;40208;39.778;2.710;2022-08-19T00:49:57;8.77;;;1.80;;
54307;SDS011;40208;39.778;2.710;2022-08-19T00:52:43;7.35;;;1.50;;
54307;SDS011;40208;39.778;2.710;2022-08-19T00:55:32;7.63;;;1.63;;
54307;SDS011;40208;39.778;2.710;2022-08-19T00:58:19;7.85;;;1.35;;
54307;SDS011;40208;39.778;2.710;2022-08-19T01:01:06;6.57;;;1.40;;
54307;SDS011;40208;39.778;2.710;2022-08-19T01:03:51;7.80;;;1.63;;
54307;SDS011;40208;39.778;2.710;2022-08-19T01:06:36;5.70;;;1.33;;
54307;SDS011;40208;39.778;2.710;2022-08-19T01:09:23;6.05;;;1.80;;
54307;SDS011;40208;39.778;2.710;2022-08-19T01:12:08;8.13;;;1.50;;
54307;SDS011;40208;39.778;2.710;2022-08-19T01:14:53;5.68;;;1.58;;
54307;SDS011;40208;39.778;2.710;2022-08-19T01:17:40;5.78;;;1.60;;
54307;SDS011;40208;39.778;2.710;2022-08-19T01:20:26;6.10;;;1.80;;
54307;SDS011;40208;39.778;2.710;2022-08-19T01:23:11;9.32;;;1.83;;
54307;SDS011;40208;39.778;2.710;2022-08-19T01:25:57;3.33;;;1.23;;
54307;SDS011;40208;39.778;2.710;2022-08-19T01:28:43;4.93;;;1.65;;
54307;SDS011;40208;39.778;2.710;2022-08-19T01:31:29;4.78;;;1.58;;
54307;SDS011;40208;39.778;2.710;2022-08-19T01:34:16;8.85;;;1.63;;
54307;SDS011;40208;39.778;2.710;2022-08-19T01:37:05;4.30;;;1.70;;
54307;SDS011;40208;39.778;2.710;2022-08-19T01:39:52;6.60;;;1.42;;
54307;SDS011;40208;39.778;2.710;2022-08-19T01:42:37;4.47;;;1.10;;
54307;SDS011;40208;39.778;2.710;2022-08-19T01:45:23;6.75;;;1.50;;
54307;SDS011;40208;39.778;2.710;2022-08-19T01:48:09;5.10;;;1.42;;
54307;SDS011;40208;39.778;2.710;2022-08-19T01:50:55;13.50;;;1.75;;
54307;SDS011;40208;39.778;2.710;2022-08-19T01:53:40;5.65;;;1.50;;
54307;SDS011;40208;39.778;2.710;2022-08-19T01:56:25;5.78;;;1.42;;
54307;SDS011;40208;39.778;2.710;2022-08-19T01:59:12;7.72;;;1.98;;
54307;SDS011;40208;39.778;2.710;2022-08-19T02:01:59;7.70;;;1.58;;
54307;SDS011;40208;39.778;2.710;2022-08-19T02:04:44;7.93;;;1.77;;
54307;SDS011;40208;39.778;2.710;2022-08-19T02:07:30;5.22;;;1.77;;
54307;SDS011;40208;39.778;2.710;2022-08-19T02:10:16;5.95;;;1.40;;
54307;SDS011;40208;39.778;2.710;2022-08-19T02:13:04;4.72;;;1.33;;
54307;SDS011;40208;39.778;2.710;2022-08-19T02:15:48;8.63;;;1.83;;
54307;SDS011;40208;39.778;2.710;2022-08-19T02:18:33;3.28;;;1.38;;
54307;SDS011;40208;39.778;2.710;2022-08-19T02:21:19;5.78;;;1.77;;
54307;SDS011;40208;39.778;2.710;2022-08-19T02:24:05;8.63;;;1.63;;
54307;SDS011;40208;39.778;2.710;2022-08-19T02:26:50;3.03;;;1.38;;
54307;SDS011;40208;39.778;2.710;2022-08-19T02:29:35;4.43;;;1.52;;
54307;SDS011;40208;39.778;2.710;2022-08-19T02:32:20;7.32;;;1.50;;
54307;SDS011;40208;39.778;2.710;2022-08-19T02:35:05;10.73;;;1.35;;
54307;SDS011;40208;39.778;2.710;2022-08-19T02:37:50;6.28;;;1.60;;
54307;SDS011;40208;39.778;2.710;2022-08-19T02:40:58;4.53;;;1.45;;
54307;SDS011;40208;39.778;2.710;2022-08-19T02:43:44;3.88;;;1.50;;
54307;SDS011;40208;39.778;2.710;2022-08-19T02:46:31;4.68;;;1.52;;
54307;SDS011;40208;39.778;2.710;2022-08-19T02:49:17;3.13;;;1.30;;
54307;SDS011;40208;39.778;2.710;2022-08-19T02:52:02;7.88;;;1.42;;
54307;SDS011;40208;39.778;2.710;2022-08-19T02:54:47;4.15;;;1.30;;
54307;SDS011;40208;39.778;2.710;2022-08-19T02:57:32;6.30;;;1.50;;
54307;SDS011;40208;39.778;2.710;2022-08-19T03:00:18;3.25;;;1.77;;
54307;SDS011;40208;39.778;2.710;2022-08-19T03:03:03;4.28;;;1.30;;
54307;SDS011;40208;39.778;2.710;2022-08-19T03:05:48;5.38;;;1.40;;
54307;SDS011;40208;39.778;2.710;2022-08-19T03:08:32;3.67;;;1.40;;
54307;SDS011;40208;39.778;2.710;2022-08-19T03:14:08;5.43;;;1.77;;
54307;SDS011;40208;39.778;2.710;2022-08-19T03:16:54;5.40;;;1.60;;
54307;SDS011;40208;39.778;2.710;2022-08-19T03:19:39;7.22;;;1.70;;
54307;SDS011;40208;39.778;2.710;2022-08-19T03:22:24;5.78;;;1.55;;
54307;SDS011;40208;39.778;2.710;2022-08-19T03:25:09;3.03;;;1.42;;
54307;SDS011;40208;39.778;2.710;2022-08-19T03:27:56;4.80;;;1.58;;
54307;SDS011;40208;39.778;2.710;2022-08-19T03:30:42;5.95;;;1.55;;
54307;SDS011;40208;39.778;2.710;2022-08-19T03:33:40;5.67;;;1.70;;
54307;SDS011;40208;39.778;2.710;2022-08-19T03:36:26;5.57;;;1.80;;
54307;SDS011;40208;39.778;2.710;2022-08-19T03:39:11;6.68;;;1.70;;
54307;SDS011;40208;39.778;2.710;2022-08-19T03:41:57;7.18;;;1.50;;
54307;SDS011;40208;39.778;2.710;2022-08-19T03:44:44;6.75;;;1.58;;
54307;SDS011;40208;39.778;2.710;2022-08-19T03:47:30;4.30;;;2.00;;
54307;SDS011;40208;39.778;2.710;2022-08-19T03:50:15;5.10;;;1.63;;
54307;SDS011;40208;39.778;2.710;2022-08-19T03:53:00;15.45;;;2.55;;
54307;SDS011;40208;39.778;2.710;2022-08-19T03:55:45;6.22;;;1.40;;
54307;SDS011;40208;39.778;2.710;2022-08-19T03:58:30;5.07;;;1.75;;
54307;SDS011;40208;39.778;2.710;2022-08-19T04:01:16;7.03;;;1.63;;
54307;SDS011;40208;39.778;2.710;2022-08-19T04:04:03;7.50;;;1.52;;
54307;SDS011;40208;39.778;2.710;2022-08-19T04:06:48;13.02;;;2.08;;
54307;SDS011;40208;39.778;2.710;2022-08-19T04:09:35;6.82;;;1.83;;
54307;SDS011;40208;39.778;2.710;2022-08-19T04:12:21;5.78;;;1.70;;
54307;SDS011;40208;39.778;2.710;2022-08-19T04:15:06;3.83;;;1.88;;
54307;SDS011;40208;39.778;2.710;2022-08-19T04:17:52;7.07;;;1.98;;
54307;SDS011;40208;39.778;2.710;2022-08-19T04:20:41;4.88;;;2.22;;
54307;SDS011;40208;39.778;2.710;2022-08-19T04:23:32;8.88;;;2.50;;
54307;SDS011;40208;39.778;2.710;2022-08-19T04:26:20;4.03;;;1.90;;
54307;SDS011;40208;39.778;2.710;2022-08-19T04:29:12;7.28;;;1.88;;
54307;SDS011;40208;39.778;2.710;2022-08-19T04:31:59;10.82;;;1.90;;
54307;SDS011;40208;39.778;2.710;2022-08-19T04:34:44;12.10;;;2.05;;
54307;SDS011;40208;39.778;2.710;2022-08-19T04:37:29;5.68;;;2.10;;
54307;SDS011;40208;39.778;2.710;2022-08-19T04:40:17;11.15;;;2.15;;
54307;SDS011;40208;39.778;2.710;2022-08-19T04:43:20;12.02;;;2.42;;
54307;SDS011;40208;39.778;2.710;2022-08-19T04:46:09;7.45;;;2.25;;
54307;SDS011;40208;39.778;2.710;2022-08-19T04:48:55;9.23;;;1.75;;
54307;SDS011;40208;39.778;2.710;2022-08-19T04:51:41;7.00;;;1.88;;
54307;SDS011;40208;39.778;2.710;2022-08-19T04:54:27;5.10;;;1.70;;
54307;SDS011;40208;39.778;2.710;2022-08-19T04:57:12;5.85;;;1.80;;
54307;SDS011;40208;39.778;2.710;2022-08-19T04:59:57;5.38;;;2.45;;
54307;SDS011;40208;39.778;2.710;2022-08-19T05:02:42;7.57;;;1.90;;
54307;SDS011;40208;39.778;2.710;2022-08-19T05:05:27;4.95;;;2.00;;
54307;SDS011;40208;39.778;2.710;2022-08-19T05:08:13;6.13;;;2.00;;
54307;SDS011;40208;39.778;2.710;2022-08-19T05:11:08;9.10;;;1.83;;
54307;SDS011;40208;39.778;2.710;2022-08-19T05:13:53;8.90;;;2.30;;
54307;SDS011;40208;39.778;2.710;2022-08-19T05:16:39;8.18;;;2.22;;
54307;SDS011;40208;39.778;2.710;2022-08-19T05:19:24;5.93;;;1.95;;
54307;SDS011;40208;39.778;2.710;2022-08-19T05:22:28;5.38;;;1.83;;
54307;SDS011;40208;39.778;2.710;2022-08-19T05:25:22;5.00;;;2.20;;
54307;SDS011;40208;39.778;2.710;2022-08-19T05:28:07;10.57;;;2.15;;
54307;SDS011;40208;39.778;2.710;2022-08-19T05:30:52;4.78;;;1.60;;
54307;SDS011;40208;39.778;2.710;2022-08-19T05:33:39;5.97;;;2.35;;
54307;SDS011;40208;39.778;2.710;2022-08-19T05:36:25;8.07;;;2.15;;
54307;SDS011;40208;39.778;2.710;2022-08-19T05:39:13;3.60;;;2.10;;
54307;SDS011;40208;39.778;2.710;2022-08-19T05:42:03;6.82;;;2.45;;
54307;SDS011;40208;39.778;2.710;2022-08-19T05:44:51;9.98;;;2.83;;
54307;SDS011;40208;39.778;2.710;2022-08-19T05:47:36;6.88;;;2.20;;
54307;SDS011;40208;39.778;2.710;2022-08-19T05:50:21;5.20;;;1.90;;
54307;SDS011;40208;39.778;2.710;2022-08-19T05:53:06;8.55;;;2.28;;
54307;SDS011;40208;39.778;2.710;2022-08-19T05:55:52;9.18;;;2.58;;
54307;SDS011;40208;39.778;2.710;2022-08-19T05:58:37;8.02;;;3.38;;
54307;SDS011;40208;39.778;2.710;2022-08-19T06:01:22;4.95;;;2.50;;
54307;SDS011;40208;39.778;2.710;2022-08-19T06:04:07;11.27;;;2.58;;
54307;SDS011;40208;39.778;2.710;2022-08-19T06:06:53;6.03;;;2.45;;
54307;SDS011;40208;39.778;2.710;2022-08-19T06:09:38;7.15;;;2.20;;
54307;SDS011;40208;39.778;2.710;2022-08-19T06:12:24;15.43;;;3.33;;
54307;SDS011;40208;39.778;2.710;2022-08-19T06:15:17;8.25;;;3.28;;
54307;SDS011;40208;39.778;2.710;2022-08-19T06:18:01;9.15;;;2.88;;
54307;SDS011;40208;39.778;2.710;2022-08-19T06:20:46;11.00;;;2.90;;
54307;SDS011;40208;39.778;2.710;2022-08-19T06:23:31;8.30;;;2.70;;
54307;SDS011;40208;39.778;2.710;2022-08-19T06:26:16;8.82;;;2.75;;
54307;SDS011;40208;39.778;2.710;2022-08-19T06:29:03;7.28;;;2.78;;
54307;SDS011;40208;39.778;2.710;2022-08-19T06:31:51;12.10;;;3.35;;
54307;SDS011;40208;39.778;2.710;2022-08-19T06:34:37;14.90;;;3.45;;
54307;SDS011;40208;39.778;2.710;2022-08-19T06:37:23;12.05;;;3.40;;
54307;SDS011;40208;39.778;2.710;2022-08-19T06:40:08;7.72;;;3.65;;
54307;SDS011;40208;39.778;2.710;2022-08-19T06:42:54;10.75;;;4.22;;
54307;SDS011;40208;39.778;2.710;2022-08-19T06:45:40;8.88;;;4.13;;
54307;SDS011;40208;39.778;2.710;2022-08-19T06:48:25;16.25;;;4.70;;
54307;SDS011;40208;39.778;2.710;2022-08-19T06:51:09;18.17;;;7.90;;
54307;SDS011;40208;39.778;2.710;2022-08-19T06:53:54;18.17;;;7.47;;
54307;SDS011;40208;39.778;2.710;2022-08-19T06:56:40;13.68;;;5.32;;
54307;SDS011;40208;39.778;2.710;2022-08-19T06:59:25;12.18;;;4.95;;
54307;SDS011;40208;39.778;2.710;2022-08-19T07:02:12;15.68;;;4.10;;
54307;SDS011;40208;39.778;2.710;2022-08-19T07:04:57;10.27;;;4.10;;
54307;SDS011;40208;39.778;2.710;2022-08-19T07:07:42;18.15;;;4.93;;
54307;SDS011;40208;39.778;2.710;2022-08-19T07:10:28;11.68;;;4.57;;
54307;SDS011;40208;39.778;2.710;2022-08-19T07:13:15;15.02;;;5.65;;
54307;SDS011;40208;39.778;2.710;2022-08-19T07:16:02;21.17;;;8.27;;
54307;SDS011;40208;39.778;2.710;2022-08-19T07:18:49;31.23;;;14.25;;
54307;SDS011;40208;39.778;2.710;2022-08-19T07:21:35;36.42;;;16.67;;
54307;SDS011;40208;39.778;2.710;2022-08-19T07:24:20;33.90;;;14.48;;
54307;SDS011;40208;39.778;2.710;2022-08-19T07:27:08;28.70;;;13.35;;
54307;SDS011;40208;39.778;2.710;2022-08-19T07:29:54;23.80;;;10.45;;
54307;SDS011;40208;39.778;2.710;2022-08-19T07:32:39;25.45;;;14.02;;
54307;SDS011;40208;39.778;2.710;2022-08-19T07:35:24;79.75;;;38.70;;
54307;SDS011;40208;39.778;2.710;2022-08-19T07:38:09;116.75;;;48.92;;
54307;SDS011;40208;39.778;2.710;2022-08-19T07:40:54;121.30;;;53.38;;
54307;SDS011;40208;39.778;2.710;2022-08-19T07:43:39;71.93;;;36.30;;
54307;SDS011;40208;39.778;2.710;2022-08-19T07:46:24;46.97;;;24.42;;
54307;SDS011;40208;39.778;2.710;2022-08-19T07:49:12;55.38;;;24.92;;
54307;SDS011;40208;39.778;2.710;2022-08-19T07:52:04;40.33;;;21.08;;
54307;SDS011;40208;39.778;2.710;2022-08-19T07:54:51;16.80;;;5.73;;
54307;SDS011;40208;39.778;2.710;2022-08-19T07:57:36;5.60;;;2.42;;
54307;SDS011;40208;39.778;2.710;2022-08-19T08:00:21;5.68;;;1.42;;
54307;SDS011;40208;39.778;2.710;2022-08-19T08:03:05;10.70;;;1.77;;
54307;SDS011;40208;39.778;2.710;2022-08-19T08:05:50;3.70;;;1.08;;
54307;SDS011;40208;39.778;2.710;2022-08-19T08:08:53;6.60;;;1.20;;
54307;SDS011;40208;39.778;2.710;2022-08-19T08:12:00;7.75;;;0.65;;
54307;SDS011;40208;39.778;2.710;2022-08-19T08:14:51;5.05;;;0.73;;
54307;SDS011;40208;39.778;2.710;2022-08-19T08:17:37;3.85;;;0.90;;
54307;SDS011;40208;39.778;2.710;2022-08-19T08:20:23;6.15;;;0.90;;
54307;SDS011;40208;39.778;2.710;2022-08-19T08:23:08;2.95;;;0.90;;
54307;SDS011;40208;39.778;2.710;2022-08-19T08:26:13;7.30;;;1.90;;
54307;SDS011;40208;39.778;2.710;2022-08-19T08:28:59;4.93;;;1.63;;
54307;SDS011;40208;39.778;2.710;2022-08-19T08:31:44;7.20;;;1.85;;
54307;SDS011;40208;39.778;2.710;2022-08-19T08:34:29;2.80;;;0.90;;
54307;SDS011;40208;39.778;2.710;2022-08-19T08:37:14;3.33;;;1.23;;
54307;SDS011;40208;39.778;2.710;2022-08-19T08:40:02;5.88;;;1.45;;
54307;SDS011;40208;39.778;2.710;2022-08-19T08:52:15;7.10;;;1.50;;
54307;SDS011;40208;39.778;2.710;2022-08-19T08:55:10;5.13;;;1.42;;
54307;SDS011;40208;39.778;2.710;2022-08-19T08:58:05;9.65;;;1.98;;
54307;SDS011;40208;39.778;2.710;2022-08-19T09:01:11;5.45;;;1.42;;
54307;SDS011;40208;39.778;2.710;2022-08-19T09:03:56;5.43;;;1.45;;
54307;SDS011;40208;39.778;2.710;2022-08-19T09:10:00;7.28;;;1.55;;
54307;SDS011;40208;39.778;2.710;2022-08-19T09:16:17;4.25;;;0.90;;
54307;SDS011;40208;39.778;2.710;2022-08-19T09:19:05;7.88;;;1.70;;
54307;SDS011;40208;39.778;2.710;2022-08-19T09:21:51;2.65;;;1.50;;
54307;SDS011;40208;39.778;2.710;2022-08-19T09:24:36;7.72;;;1.60;;
54307;SDS011;40208;39.778;2.710;2022-08-19T09:27:21;6.38;;;1.30;;
54307;SDS011;40208;39.778;2.710;2022-08-19T09:30:14;4.55;;;1.10;;
54307;SDS011;40208;39.778;2.710;2022-08-19T09:33:11;8.15;;;1.60;;
54307;SDS011;40208;39.778;2.710;2022-08-19T09:36:04;3.83;;;0.80;;
54307;SDS011;40208;39.778;2.710;2022-08-19T09:38:52;4.00;;;0.82;;
54307;SDS011;40208;39.778;2.710;2022-08-19T09:41:37;3.53;;;0.80;;
54307;SDS011;40208;39.778;2.710;2022-08-19T09:44:22;2.35;;;0.60;;
54307;SDS011;40208;39.778;2.710;2022-08-19T09:47:08;4.05;;;1.08;;
54307;SDS011;40208;39.778;2.710;2022-08-19T09:49:55;4.68;;;1.23;;
54307;SDS011;40208;39.778;2.710;2022-08-19T09:52:40;2.25;;;0.82;;
54307;SDS011;40208;39.778;2.710;2022-08-19T09:55:26;3.53;;;1.27;;
54307;SDS011;40208;39.778;2.710;2022-08-19T09:58:11;7.55;;;2.72;;
54307;SDS011;40208;39.778;2.710;2022-08-19T10:00:56;1.42;;;0.90;;
54307;SDS011;40208;39.778;2.710;2022-08-19T10:03:42;7.60;;;1.63;;
54307;SDS011;40208;39.778;2.710;2022-08-19T10:06:28;5.30;;;1.83;;
54307;SDS011;40208;39.778;2.710;2022-08-19T10:09:18;4.50;;;1.92;;
54307;SDS011;40208;39.778;2.710;2022-08-19T10:12:03;3.15;;;0.80;;
54307;SDS011;40208;39.778;2.710;2022-08-19T10:14:49;3.75;;;0.77;;
54307;SDS011;40208;39.778;2.710;2022-08-19T10:17:35;4.10;;;0.70;;
54307;SDS011;40208;39.778;2.710;2022-08-19T10:20:20;3.20;;;0.73;;
54307;SDS011;40208;39.778;2.710;2022-08-19T10:23:05;1.45;;;0.43;;
54307;SDS011;40208;39.778;2.710;2022-08-19T10:25:50;1.95;;;0.50;;
54307;SDS011;40208;39.778;2.710;2022-08-19T10:28:37;14.85;;;0.93;;
54307;SDS011;40208;39.778;2.710;2022-08-19T10:31:29;5.10;;;0.80;;
54307;SDS011;40208;39.778;2.710;2022-08-19T10:34:15;2.08;;;0.65;;
54307;SDS011;40208;39.778;2.710;2022-08-19T10:37:02;1.88;;;0.50;;
54307;SDS011;40208;39.778;2.710;2022-08-19T10:39:49;1.92;;;0.57;;
54307;SDS011;40208;39.778;2.710;2022-08-19T10:42:35;1.40;;;0.52;;
54307;SDS011;40208;39.778;2.710;2022-08-19T10:45:20;2.97;;;0.80;;
54307;SDS011;40208;39.778;2.710;2022-08-19T10:48:09;3.43;;;0.80;;
54307;SDS011;40208;39.778;2.710;2022-08-19T10:50:53;1.60;;;0.60;;
54307;SDS011;40208;39.778;2.710;2022-08-19T10:53:57;3.33;;;0.80;;
54307;SDS011;40208;39.778;2.710;2022-08-19T10:56:43;4.68;;;0.82;;
54307;SDS011;40208;39.778;2.710;2022-08-19T10:59:38;5.47;;;1.05;;
54307;SDS011;40208;39.778;2.710;2022-08-19T11:02:23;4.68;;;0.95;;
54307;SDS011;40208;39.778;2.710;2022-08-19T11:05:08;6.47;;;1.08;;
54307;SDS011;40208;39.778;2.710;2022-08-19T11:07:56;5.78;;;0.80;;
54307;SDS011;40208;39.778;2.710;2022-08-19T11:10:41;2.03;;;0.73;;
54307;SDS011;40208;39.778;2.710;2022-08-19T11:13:27;5.97;;;1.77;;
54307;SDS011;40208;39.778;2.710;2022-08-19T11:16:14;6.03;;;1.38;;
54307;SDS011;40208;39.778;2.710;2022-08-19T11:19:03;5.40;;;1.70;;
54307;SDS011;40208;39.778;2.710;2022-08-19T11:21:48;3.88;;;1.65;;
54307;SDS011;40208;39.778;2.710;2022-08-19T11:24:33;8.05;;;0.95;;
54307;SDS011;40208;39.778;2.710;2022-08-19T11:27:18;3.33;;;1.08;;
54307;SDS011;40208;39.778;2.710;2022-08-19T11:30:04;2.08;;;0.80;;
54307;SDS011;40208;39.778;2.710;2022-08-19T11:32:49;8.63;;;1.48;;
54307;SDS011;40208;39.778;2.710;2022-08-19T11:35:38;8.00;;;1.17;;
54307;SDS011;40208;39.778;2.710;2022-08-19T11:38:24;2.17;;;0.70;;
54307;SDS011;40208;39.778;2.710;2022-08-19T11:41:10;5.43;;;0.95;;
54307;SDS011;40208;39.778;2.710;2022-08-19T11:43:58;5.45;;;1.38;;
54307;SDS011;40208;39.778;2.710;2022-08-19T11:46:44;2.40;;;0.85;;
54307;SDS011;40208;39.778;2.710;2022-08-19T11:49:30;5.35;;;1.08;;
54307;SDS011;40208;39.778;2.710;2022-08-19T11:52:15;2.67;;;0.88;;
54307;SDS011;40208;39.778;2.710;2022-08-19T11:55:00;2.45;;;0.70;;
54307;SDS011;40208;39.778;2.710;2022-08-19T11:57:45;3.10;;;0.93;;
54307;SDS011;40208;39.778;2.710;2022-08-19T12:00:31;8.13;;;0.80;;
54307;SDS011;40208;39.778;2.710;2022-08-19T12:03:16;9.10;;;0.90;;
54307;SDS011;40208;39.778;2.710;2022-08-19T12:06:08;5.28;;;1.13;;
54307;SDS011;40208;39.778;2.710;2022-08-19T12:08:57;2.75;;;0.55;;
54307;SDS011;40208;39.778;2.710;2022-08-19T12:11:44;4.30;;;1.05;;
54307;SDS011;40208;39.778;2.710;2022-08-19T12:14:30;2.67;;;0.73;;
54307;SDS011;40208;39.778;2.710;2022-08-19T12:17:16;4.95;;;1.13;;
54307;SDS011;40208;39.778;2.710;2022-08-19T12:20:01;3.08;;;0.98;;
54307;SDS011;40208;39.778;2.710;2022-08-19T12:22:45;2.70;;;0.70;;
54307;SDS011;40208;39.778;2.710;2022-08-19T12:25:30;2.40;;;0.73;;
54307;SDS011;40208;39.778;2.710;2022-08-19T12:28:16;3.13;;;0.77;;
54307;SDS011;40208;39.778;2.710;2022-08-19T12:31:01;7.32;;;1.15;;
54307;SDS011;40208;39.778;2.710;2022-08-19T12:33:46;6.03;;;0.93;;
54307;SDS011;40208;39.778;2.710;2022-08-19T12:36:31;3.40;;;0.85;;
54307;SDS011;40208;39.778;2.710;2022-08-19T12:39:16;1.05;;;0.60;;
54307;SDS011;40208;39.778;2.710;2022-08-19T12:42:01;2.80;;;1.02;;
54307;SDS011;40208;39.778;2.710;2022-08-19T12:44:46;5.82;;;1.10;;
54307;SDS011;40208;39.778;2.710;2022-08-19T12:47:31;4.18;;;0.80;;
54307;SDS011;40208;39.778;2.710;2022-08-19T12:50:16;3.08;;;0.80;;
54307;SDS011;40208;39.778;2.710;2022-08-19T12:53:01;6.20;;;1.50;;
54307;SDS011;40208;39.778;2.710;2022-08-19T12:55:46;2.35;;;0.70;;
54307;SDS011;40208;39.778;2.710;2022-08-19T12:58:31;6.05;;;1.08;;
54307;SDS011;40208;39.778;2.710;2022-08-19T13:01:18;5.65;;;0.65;;
54307;SDS011;40208;39.778;2.710;2022-08-19T13:04:04;4.05;;;1.40;;
54307;SDS011;40208;39.778;2.710;2022-08-19T13:06:49;2.95;;;0.82;;
54307;SDS011;40208;39.778;2.710;2022-08-19T13:09:34;2.70;;;0.65;;
54307;SDS011;40208;39.778;2.710;2022-08-19T13:12:19;2.72;;;0.82;;
54307;SDS011;40208;39.778;2.710;2022-08-19T13:15:05;6.07;;;0.68;;
54307;SDS011;40208;39.778;2.710;2022-08-19T13:17:51;9.50;;;0.95;;
54307;SDS011;40208;39.778;2.710;2022-08-19T13:20:38;6.88;;;1.25;;
54307;SDS011;40208;39.778;2.710;2022-08-19T13:23:27;3.20;;;1.38;;
54307;SDS011;40208;39.778;2.710;2022-08-19T13:26:12;7.35;;;1.00;;
54307;SDS011;40208;39.778;2.710;2022-08-19T13:28:57;3.47;;;1.08;;
54307;SDS011;40208;39.778;2.710;2022-08-19T13:32:01;1.83;;;0.60;;
54307;SDS011;40208;39.778;2.710;2022-08-19T13:35:04;3.10;;;0.82;;
54307;SDS011;40208;39.778;2.710;2022-08-19T13:37:49;2.22;;;0.75;;
54307;SDS011;40208;39.778;2.710;2022-08-19T13:40:34;1.70;;;0.90;;
54307;SDS011;40208;39.778;2.710;2022-08-19T13:43:21;2.65;;;0.80;;
54307;SDS011;40208;39.778;2.710;2022-08-19T13:46:10;3.15;;;1.30;;
54307;SDS011;40208;39.778;2.710;2022-08-19T13:48:57;3.50;;;0.93;;
54307;SDS011;40208;39.778;2.710;2022-08-19T13:51:43;2.92;;;0.73;;
54307;SDS011;40208;39.778;2.710;2022-08-19T13:54:28;4.38;;;0.90;;
54307;SDS011;40208;39.778;2.710;2022-08-19T13:57:13;15.23;;;3.17;;
54307;SDS011;40208;39.778;2.710;2022-08-19T13:59:58;4.82;;;1.30;;
54307;SDS011;40208;39.778;2.710;2022-08-19T14:02:44;14.30;;;2.03;;
54307;SDS011;40208;39.778;2.710;2022-08-19T14:05:31;6.55;;;1.00;;
54307;SDS011;40208;39.778;2.710;2022-08-19T14:08:16;10.15;;;1.90;;
54307;SDS011;40208;39.778;2.710;2022-08-19T14:11:02;15.85;;;2.10;;
54307;SDS011;40208;39.778;2.710;2022-08-19T14:13:47;5.07;;;1.27;;
54307;SDS011;40208;39.778;2.710;2022-08-19T14:16:32;15.30;;;1.42;;
54307;SDS011;40208;39.778;2.710;2022-08-19T14:19:17;4.50;;;1.13;;
54307;SDS011;40208;39.778;2.710;2022-08-19T14:22:02;6.25;;;0.82;;
54307;SDS011;40208;39.778;2.710;2022-08-19T14:24:47;5.80;;;1.10;;
54307;SDS011;40208;39.778;2.710;2022-08-19T14:27:33;5.35;;;1.10;;
54307;SDS011;40208;39.778;2.710;2022-08-19T14:30:20;8.18;;;1.20;;
54307;SDS011;40208;39.778;2.710;2022-08-19T14:33:07;4.87;;;0.90;;
54307;SDS011;40208;39.778;2.710;2022-08-19T14:35:52;3.63;;;0.90;;
54307;SDS011;40208;39.778;2.710;2022-08-19T14:38:37;3.55;;;0.93;;
54307;SDS011;40208;39.778;2.710;2022-08-19T14:41:23;6.82;;;0.93;;
54307;SDS011;40208;39.778;2.710;2022-08-19T14:44:08;4.63;;;0.95;;
54307;SDS011;40208;39.778;2.710;2022-08-19T14:46:56;5.38;;;1.40;;
54307;SDS011;40208;39.778;2.710;2022-08-19T14:49:41;3.20;;;0.80;;
54307;SDS011;40208;39.778;2.710;2022-08-19T14:52:26;5.22;;;1.20;;
54307;SDS011;40208;39.778;2.710;2022-08-19T14:55:11;2.92;;;0.98;;
54307;SDS011;40208;39.778;2.710;2022-08-19T14:57:56;5.63;;;0.95;;
54307;SDS011;40208;39.778;2.710;2022-08-19T15:00:41;2.53;;;0.70;;
54307;SDS011;40208;39.778;2.710;2022-08-19T15:03:26;1.15;;;0.60;;
54307;SDS011;40208;39.778;2.710;2022-08-19T15:06:12;2.35;;;1.15;;
54307;SDS011;40208;39.778;2.710;2022-08-19T15:08:57;4.25;;;0.52;;
54307;SDS011;40208;39.778;2.710;2022-08-19T15:11:42;6.88;;;1.48;;
54307;SDS011;40208;39.778;2.710;2022-08-19T15:14:35;3.28;;;1.08;;
54307;SDS011;40208;39.778;2.710;2022-08-19T15:17:21;12.48;;;2.03;;
54307;SDS011;40208;39.778;2.710;2022-08-19T15:20:07;2.05;;;1.02;;
54307;SDS011;40208;39.778;2.710;2022-08-19T15:22:52;8.63;;;1.92;;
54307;SDS011;40208;39.778;2.710;2022-08-19T15:25:37;9.35;;;1.85;;
54307;SDS011;40208;39.778;2.710;2022-08-19T15:28:22;3.80;;;1.42;;
54307;SDS011;40208;39.778;2.710;2022-08-19T15:31:08;6.32;;;1.85;;
54307;SDS011;40208;39.778;2.710;2022-08-19T15:33:53;7.95;;;2.30;;
54307;SDS011;40208;39.778;2.710;2022-08-19T15:36:41;7.07;;;2.10;;
54307;SDS011;40208;39.778;2.710;2022-08-19T15:39:25;13.40;;;3.00;;
54307;SDS011;40208;39.778;2.710;2022-08-19T15:42:11;4.65;;;1.90;;
54307;SDS011;40208;39.778;2.710;2022-08-19T15:44:55;6.93;;;2.10;;
54307;SDS011;40208;39.778;2.710;2022-08-19T15:47:40;5.03;;;1.17;;
54307;SDS011;40208;39.778;2.710;2022-08-19T15:50:26;6.32;;;1.40;;
54307;SDS011;40208;39.778;2.710;2022-08-19T15:53:11;2.35;;;0.90;;
54307;SDS011;40208;39.778;2.710;2022-08-19T15:55:56;7.65;;;1.10;;
54307;SDS011;40208;39.778;2.710;2022-08-19T15:58:41;3.55;;;1.00;;
54307;SDS011;40208;39.778;2.710;2022-08-19T16:01:45;1.42;;;0.70;;
54307;SDS011;40208;39.778;2.710;2022-08-19T16:04:50;5.97;;;1.05;;
54307;SDS011;40208;39.778;2.710;2022-08-19T16:07:54;4.30;;;0.95;;
54307;SDS011;40208;39.778;2.710;2022-08-19T16:10:39;2.28;;;0.70;;
54307;SDS011;40208;39.778;2.710;2022-08-19T16:13:24;5.28;;;0.95;;
54307;SDS011;40208;39.778;2.710;2022-08-19T16:16:09;3.47;;;0.70;;
54307;SDS011;40208;39.778;2.710;2022-08-19T16:18:55;4.28;;;1.52;;
54307;SDS011;40208;39.778;2.710;2022-08-19T16:21:42;4.20;;;1.10;;
54307;SDS011;40208;39.778;2.710;2022-08-19T16:24:28;2.80;;;0.85;;
54307;SDS011;40208;39.778;2.710;2022-08-19T16:27:13;3.08;;;0.65;;
54307;SDS011;40208;39.778;2.710;2022-08-19T16:30:00;4.43;;;0.98;;
54307;SDS011;40208;39.778;2.710;2022-08-19T16:32:44;2.85;;;0.90;;
54307;SDS011;40208;39.778;2.710;2022-08-19T16:35:29;1.20;;;0.70;;
54307;SDS011;40208;39.778;2.710;2022-08-19T16:38:14;2.13;;;0.80;;
54307;SDS011;40208;39.778;2.710;2022-08-19T16:40:59;4.10;;;0.88;;
54307;SDS011;40208;39.778;2.710;2022-08-19T16:43:44;2.88;;;0.82;;
54307;SDS011;40208;39.778;2.710;2022-08-19T16:46:29;2.75;;;0.90;;
54307;SDS011;40208;39.778;2.710;2022-08-19T16:49:14;4.93;;;0.90;;
54307;SDS011;40208;39.778;2.710;2022-08-19T16:51:59;2.08;;;0.75;;
54307;SDS011;40208;39.778;2.710;2022-08-19T16:54:45;5.95;;;0.93;;
54307;SDS011;40208;39.778;2.710;2022-08-19T16:57:31;3.97;;;0.90;;
54307;SDS011;40208;39.778;2.710;2022-08-19T17:00:16;2.55;;;0.80;;